createdAt,value
2023-03-11T00:01:36.433Z,98218.88
2023-03-11T00:04:39.122Z,98221.25
2023-03-11T00:07:41.541Z,98217.28
2023-03-11T00:10:46.106Z,98217.28
2023-03-11T00:13:48.823Z,98223.94
2023-03-11T00:16:51.465Z,98180.19
2023-03-11T00:19:53.872Z,98191.19
2023-03-11T00:22:57.674Z,98207.38
2023-03-11T00:26:01.944Z,98204.22
2023-03-11T00:29:04.573Z,98199.06
2023-03-11T00:32:07.123Z,98202.22
2023-03-11T00:35:14.382Z,98175.38
2023-03-11T00:38:17.633Z,98194.25
2023-03-11T00:41:20.486Z,98182.41
2023-03-11T00:44:23.002Z,98180.44
2023-03-11T00:47:26.473Z,98197.44
2023-03-11T00:50:34.897Z,98172.59
2023-03-11T00:53:37.601Z,98193.50
2023-03-11T00:56:41.639Z,98188.00
2023-03-11T00:59:44.489Z,98172.19
2023-03-11T01:02:47.002Z,98180.84
2023-03-11T01:05:50.621Z,98208.44
2023-03-11T01:08:53.109Z,98191.91
2023-03-11T01:11:55.714Z,98185.50
2023-03-11T01:14:58.318Z,98183.97
2023-03-11T01:18:01.338Z,98174.47
2023-03-11T01:21:03.870Z,98184.78
2023-03-11T01:24:07.937Z,98178.78
2023-03-11T01:27:10.218Z,98182.41
2023-03-11T01:30:16.024Z,98181.50
2023-03-11T01:33:19.578Z,98180.37
2023-03-11T01:36:22.289Z,98195.28
2023-03-11T01:39:24.603Z,98192.53
2023-03-11T01:42:28.034Z,98192.53
2023-03-11T01:45:43.171Z,98161.41
2023-03-11T01:48:54.799Z,98179.13
2023-03-11T01:52:03.744Z,98140.53
2023-03-11T01:55:07.378Z,98154.63
2023-03-11T01:58:14.478Z,98158.50
2023-03-11T02:01:17.250Z,98197.09
2023-03-11T02:04:21.579Z,98191.19
2023-03-11T02:07:24.079Z,98190.00
2023-03-11T02:10:27.662Z,98199.41
2023-03-11T02:13:31.760Z,98209.63
2023-03-11T02:16:34.985Z,98208.06
2023-03-11T02:20:02.161Z,98182.00
2023-03-11T02:23:04.908Z,98190.75
2023-03-11T02:26:16.289Z,98201.00
2023-03-11T02:29:20.823Z,98167.84
2023-03-11T02:32:24.451Z,98197.84
2023-03-11T02:35:26.984Z,98193.91
2023-03-11T02:38:30.103Z,98197.84
2023-03-11T02:41:35.544Z,98169.41
2023-03-11T02:44:39.895Z,98196.66
2023-03-11T02:47:42.523Z,98200.19
2023-03-11T02:50:46.850Z,98199.41
2023-03-11T02:53:55.908Z,98201.75
2023-03-11T02:56:58.732Z,98173.31
2023-03-11T03:00:08.625Z,98176.50
2023-03-11T03:03:11.396Z,98211.59
2023-03-11T03:06:14.264Z,98221.41
2023-03-11T03:09:16.974Z,98237.12
2023-03-11T03:12:19.551Z,98232.00
2023-03-11T03:15:22.442Z,98228.47
2023-03-11T03:18:25.629Z,98225.72
2023-03-11T03:21:28.407Z,98221.38
2023-03-11T03:24:31.294Z,98223.38
2023-03-11T03:27:34.572Z,98238.72
2023-03-11T03:30:37.795Z,98250.06
2023-03-11T03:33:40.662Z,98227.88
2023-03-11T03:36:43.163Z,98256.72
2023-03-11T03:39:46.301Z,98218.81
2023-03-11T03:42:48.963Z,98259.47
2023-03-11T03:46:02.522Z,98225.97
2023-03-11T03:49:05.878Z,98248.37
2023-03-11T03:52:10.441Z,98225.00
2023-03-11T03:55:13.386Z,98232.09
2023-03-11T03:58:16.386Z,98264.78
2023-03-11T04:01:19.316Z,98261.19
2023-03-11T04:04:22.530Z,98239.00
2023-03-11T04:07:25.018Z,98236.25
2023-03-11T04:10:28.107Z,98279.16
2023-03-11T04:13:30.781Z,98286.94
2023-03-11T04:16:33.744Z,98297.88
2023-03-11T04:19:37.109Z,98298.09
2023-03-11T04:22:39.761Z,98318.53
2023-03-11T04:25:42.825Z,98302.25
2023-03-11T04:28:45.739Z,98294.75
2023-03-11T04:31:49.145Z,98327.50
2023-03-11T04:34:52.151Z,98313.97
2023-03-11T04:37:54.588Z,98326.16
2023-03-11T04:41:05.914Z,98320.47
2023-03-11T04:44:08.985Z,98339.84
2023-03-11T04:47:11.667Z,98298.78
2023-03-11T04:50:14.850Z,98274.25
2023-03-11T04:53:17.804Z,98329.16
2023-03-11T04:56:21.097Z,98322.78
2023-03-11T04:59:24.558Z,98317.94
2023-03-11T05:02:28.040Z,98311.44
2023-03-11T05:05:31.921Z,98326.38
2023-03-11T05:08:34.630Z,98332.72
2023-03-11T05:11:37.362Z,98338.56
2023-03-11T05:14:40.802Z,98340.09
2023-03-11T05:17:43.770Z,98353.38
2023-03-11T05:20:46.131Z,98358.19
2023-03-11T05:23:49.684Z,98378.53
2023-03-11T05:26:53.221Z,98321.75
2023-03-11T05:29:56.029Z,98395.16
2023-03-11T05:32:58.999Z,98383.56
2023-03-11T05:36:10.176Z,98389.91
2023-03-11T05:39:13.120Z,98355.81
2023-03-11T05:42:15.874Z,98378.09
2023-03-11T05:45:18.485Z,98368.34
2023-03-11T05:48:21.421Z,98377.69
2023-03-11T05:51:24.059Z,98392.00
2023-03-11T05:54:26.939Z,98416.22
2023-03-11T05:57:29.737Z,98378.91
2023-03-11T06:00:32.507Z,98411.31
2023-03-11T06:03:35.644Z,98415.81
2023-03-11T06:06:41.582Z,98398.22
2023-03-11T06:09:45.107Z,98428.50
2023-03-11T06:12:48.182Z,98440.09
2023-03-11T06:15:51.599Z,98425.91
2023-03-11T06:18:54.373Z,98416.97
2023-03-11T06:21:57.361Z,98425.75
2023-03-11T06:24:59.758Z,98424.28
2023-03-11T06:28:02.976Z,98441.75
2023-03-11T06:31:19.528Z,98445.69
2023-03-11T06:34:23.738Z,98489.19
2023-03-11T06:37:26.232Z,98479.25
2023-03-11T06:40:31.390Z,98447.81
2023-03-11T06:43:34.942Z,98459.41
2023-03-11T06:46:37.821Z,98468.97
2023-03-11T06:49:41.770Z,98496.19
2023-03-11T06:52:44.611Z,98501.88
2023-03-11T06:55:57.184Z,98515.59
2023-03-11T06:58:59.918Z,98484.56
2023-03-11T07:02:05.628Z,98503.09
2023-03-11T07:05:08.812Z,98538.94
2023-03-11T07:08:11.704Z,98497.53
2023-03-11T07:11:20.185Z,98505.34
2023-03-11T07:14:23.732Z,98517.91
2023-03-11T07:17:27.354Z,98496.38
2023-03-11T07:20:29.847Z,98528.09
2023-03-11T07:23:33.884Z,98502.19
2023-03-11T07:26:36.300Z,98538.47
2023-03-11T07:29:39.515Z,98521.16
2023-03-11T07:32:42.352Z,98530.22
2023-03-11T07:35:45.638Z,98511.84
2023-03-11T07:38:48.838Z,98541.34
2023-03-11T07:41:51.806Z,98555.66
2023-03-11T07:44:54.238Z,98554.94
2023-03-11T07:47:56.926Z,98534.62
2023-03-11T07:51:08.567Z,98533.38
2023-03-11T07:54:12.903Z,98531.06
2023-03-11T07:57:17.223Z,98520.22
2023-03-11T08:00:20.245Z,98516.84
2023-03-11T08:03:26.022Z,98528.75
2023-03-11T08:06:31.333Z,98549.00
2023-03-11T08:09:35.332Z,98560.56
2023-03-11T08:12:37.848Z,98573.41
2023-03-11T08:15:40.716Z,98604.03
2023-03-11T08:18:43.590Z,98588.56
2023-03-11T08:21:46.254Z,98599.72
2023-03-11T08:24:52.990Z,98614.94
2023-03-11T08:27:56.177Z,98629.16
2023-03-11T08:30:58.657Z,98663.88
2023-03-11T08:34:04.794Z,98656.12
2023-03-11T08:37:07.335Z,98652.34
2023-03-11T08:40:10.892Z,98654.31
2023-03-11T08:43:14.199Z,98675.00
2023-03-11T08:46:38.118Z,98700.75
2023-03-11T08:49:40.845Z,98700.66
2023-03-11T08:52:43.472Z,98668.34
2023-03-11T08:55:45.785Z,98654.03
2023-03-11T08:58:49.075Z,98652.53
2023-03-11T09:01:51.395Z,98631.09
2023-03-11T09:04:54.074Z,98634.66
2023-03-11T09:07:57.020Z,98655.06
2023-03-11T09:10:59.795Z,98637.69
2023-03-11T09:14:02.083Z,98627.47
2023-03-11T09:17:04.733Z,98647.00
2023-03-11T09:20:07.670Z,98652.09
2023-03-11T09:23:11.959Z,98634.31
2023-03-11T09:26:14.781Z,98660.31
2023-03-11T09:29:17.444Z,98673.53
2023-03-11T09:32:20.033Z,98677.16
2023-03-11T09:35:23.399Z,98675.00
2023-03-11T09:38:25.785Z,98669.44
2023-03-11T09:41:58.513Z,98602.75
2023-03-11T09:45:10.198Z,98667.72
2023-03-11T09:48:24.674Z,98640.38
2023-03-11T09:51:35.940Z,98656.41
2023-03-11T09:54:46.853Z,98641.97
2023-03-11T09:57:51.650Z,98650.00
2023-03-11T10:00:55.193Z,98640.53
2023-03-11T10:04:04.379Z,98629.72
2023-03-11T10:07:15.496Z,98621.19
2023-03-11T10:10:18.399Z,98652.75
2023-03-11T10:13:43.517Z,98632.25
2023-03-11T10:17:06.200Z,98634.41
2023-03-11T10:20:19.949Z,98647.72
2023-03-11T10:23:26.704Z,98640.12
2023-03-11T10:26:44.776Z,98652.56
2023-03-11T10:30:12.554Z,98680.00
2023-03-11T10:33:36.965Z,98696.69
2023-03-11T10:36:42.615Z,98710.38
2023-03-11T10:39:47.191Z,98727.09
2023-03-11T10:42:52.337Z,98734.97
2023-03-11T10:45:54.878Z,98735.84
2023-03-11T10:48:57.670Z,98725.59
2023-03-11T10:52:04.147Z,98727.75
2023-03-11T10:55:07.177Z,98755.53
2023-03-11T10:58:16.569Z,98766.94
2023-03-11T11:01:21.684Z,98757.84
2023-03-11T11:04:40.262Z,98774.00
2023-03-11T11:07:44.417Z,98762.25
2023-03-11T11:10:52.218Z,98754.16
2023-03-11T11:14:00.826Z,98770.53
2023-03-11T11:17:03.211Z,98751.47
2023-03-11T11:20:17.864Z,98783.97
2023-03-11T11:23:37.390Z,98789.28
2023-03-11T11:26:40.124Z,98765.22
2023-03-11T11:29:42.870Z,98757.84
2023-03-11T11:32:45.582Z,98812.97
2023-03-11T11:35:55.097Z,98775.16
2023-03-11T11:38:59.683Z,98754.50
2023-03-11T11:42:03.135Z,98786.75
2023-03-11T11:45:11.049Z,98777.62
2023-03-11T11:48:19.646Z,98782.94
2023-03-11T11:51:30.085Z,98789.97
2023-03-11T11:54:38.835Z,98792.78
2023-03-11T11:57:41.474Z,98793.66
2023-03-11T12:00:55.863Z,98780.34
2023-03-11T12:04:26.293Z,98788.09
2023-03-11T12:07:54.630Z,98769.53
2023-03-11T12:11:01.502Z,98795.22
2023-03-11T12:14:12.823Z,98793.25
2023-03-11T12:17:19.307Z,98757.28
2023-03-11T12:20:31.048Z,98738.03
2023-03-11T12:24:02.186Z,98774.19
2023-03-11T12:27:16.514Z,98757.47
2023-03-11T12:30:27.211Z,98758.44
2023-03-11T12:33:45.001Z,98786.56
2023-03-11T12:36:48.560Z,98789.34
2023-03-11T12:39:50.990Z,98763.53
2023-03-11T12:42:53.571Z,98783.00
2023-03-11T12:45:59.476Z,98803.13
2023-03-11T12:49:08.020Z,98807.69
2023-03-11T12:52:13.600Z,98822.72
2023-03-11T12:55:19.055Z,98823.91
2023-03-11T12:58:48.329Z,98818.00
2023-03-11T13:02:04.080Z,98813.50
2023-03-11T13:05:21.450Z,98830.38
2023-03-11T13:08:27.210Z,98847.59
2023-03-11T13:11:32.398Z,98839.22
2023-03-11T13:14:35.453Z,98845.84
2023-03-11T13:17:37.888Z,98846.78
2023-03-11T13:20:43.467Z,98860.22
2023-03-11T13:23:45.975Z,98834.50
2023-03-11T13:27:06.904Z,98852.25
2023-03-11T13:30:20.756Z,98868.28
2023-03-11T13:33:34.273Z,98878.19
2023-03-11T13:36:57.065Z,98887.78
2023-03-11T13:40:14.338Z,98880.06
2023-03-11T13:43:16.615Z,98883.72
2023-03-11T13:46:38.415Z,98922.41
2023-03-11T13:49:52.040Z,98916.25
2023-03-11T13:52:56.933Z,98875.34
2023-03-11T13:55:59.338Z,98910.50
2023-03-11T13:59:27.009Z,98921.66
2023-03-11T14:02:29.422Z,98963.56
2023-03-11T14:05:43.804Z,98948.19
2023-03-11T14:08:55.036Z,98946.59
2023-03-11T14:12:04.900Z,98935.19
2023-03-11T14:15:17.149Z,98938.28
2023-03-11T14:18:44.159Z,98926.87
2023-03-11T14:21:49.785Z,98962.72
2023-03-11T14:24:52.664Z,98937.84
2023-03-11T14:28:00.991Z,98943.50
2023-03-11T14:31:04.658Z,98985.47
2023-03-11T14:34:10.055Z,98962.97
2023-03-11T14:37:38.856Z,99000.94
2023-03-11T14:40:42.159Z,99010.59
2023-03-11T14:43:47.938Z,98982.81
2023-03-11T14:46:56.957Z,99011.03
2023-03-11T14:50:25.092Z,98987.06
2023-03-11T14:53:46.968Z,99005.31
2023-03-11T14:56:56.533Z,99017.22
2023-03-11T14:59:59.294Z,99028.66
2023-03-11T15:03:20.734Z,99038.69
2023-03-11T15:06:26.948Z,99045.44
2023-03-11T15:09:30.095Z,99048.50
2023-03-11T15:12:41.318Z,99056.19
2023-03-11T15:15:46.058Z,99054.94
2023-03-11T15:18:48.706Z,99069.53
2023-03-11T15:21:56.453Z,99022.34
2023-03-11T15:25:01.297Z,99084.25
2023-03-11T15:28:26.706Z,99070.00
2023-03-11T15:31:32.663Z,99068.78
2023-03-11T15:34:36.304Z,99084.16
2023-03-11T15:37:40.859Z,99077.09
2023-03-11T15:40:52.586Z,99083.03
2023-03-11T15:43:55.155Z,99072.31
2023-03-11T15:47:00.461Z,99076.31
2023-03-11T15:50:25.180Z,99105.59
2023-03-11T15:53:30.422Z,99098.78
2023-03-11T15:56:33.618Z,99127.53
2023-03-11T15:59:37.446Z,99116.81
2023-03-11T16:02:39.835Z,99102.44
2023-03-11T16:05:42.781Z,99159.47
2023-03-11T16:08:45.110Z,99071.31
2023-03-11T16:11:47.842Z,99153.03
2023-03-11T16:14:50.710Z,99137.63
2023-03-11T16:17:54.989Z,99110.38
2023-03-11T16:20:57.224Z,99142.41
2023-03-11T16:24:00.541Z,99157.31
2023-03-11T16:27:03.214Z,99139.25
2023-03-11T16:30:06.609Z,99168.91
2023-03-11T16:33:09.092Z,99053.16
2023-03-11T16:36:11.738Z,99172.13
2023-03-11T16:39:14.662Z,99069.94
2023-03-11T16:42:23.600Z,99181.75
2023-03-11T16:45:26.204Z,99177.25
2023-03-11T16:48:28.910Z,99179.09
2023-03-11T16:51:31.613Z,99184.97
2023-03-11T16:54:35.153Z,99227.88
2023-03-11T16:57:39.389Z,99235.12
2023-03-11T17:00:42.561Z,99230.72
2023-03-11T17:03:48.680Z,99248.31
2023-03-11T17:06:51.365Z,99257.59
2023-03-11T17:09:53.704Z,99241.50
2023-03-11T17:12:56.676Z,99270.72
2023-03-11T17:16:05.113Z,99279.09
2023-03-11T17:19:07.818Z,99244.69
2023-03-11T17:22:11.021Z,99282.69
2023-03-11T17:25:13.641Z,99303.88
2023-03-11T17:28:16.011Z,99277.25
2023-03-11T17:31:18.913Z,99310.09
2023-03-11T17:34:21.401Z,99303.19
2023-03-11T17:37:24.329Z,99299.72
2023-03-11T17:40:29.322Z,99292.25
2023-03-11T17:43:32.055Z,99300.16
2023-03-11T17:46:36.357Z,99346.37
2023-03-11T17:49:39.090Z,99351.53
2023-03-11T17:52:41.403Z,99321.25
2023-03-11T17:55:44.038Z,99354.00
2023-03-11T17:58:47.441Z,99355.91
2023-03-11T18:01:50.105Z,99362.34
2023-03-11T18:04:53.865Z,99371.28
2023-03-11T18:07:56.336Z,99375.66
2023-03-11T18:11:02.082Z,99377.91
2023-03-11T18:14:04.446Z,99355.91
2023-03-11T18:17:07.185Z,99383.03
2023-03-11T18:20:10.083Z,99367.50
2023-03-11T18:23:12.945Z,99369.75
2023-03-11T18:26:19.109Z,99398.78
2023-03-11T18:29:24.041Z,99405.38
2023-03-11T18:32:26.689Z,99384.84
2023-03-11T18:35:29.607Z,99402.81
2023-03-11T18:38:31.940Z,99421.75
2023-03-11T18:41:35.556Z,99426.28
2023-03-11T18:44:37.900Z,99427.41
2023-03-11T18:47:40.821Z,99440.41
2023-03-11T18:50:43.198Z,99411.06
2023-03-11T18:53:45.886Z,99441.88
2023-03-11T18:56:48.649Z,99445.75
2023-03-11T18:59:52.094Z,99429.16
2023-03-11T19:02:54.541Z,99456.69
2023-03-11T19:05:57.158Z,99427.75
2023-03-11T19:08:59.642Z,99470.16
2023-03-11T19:12:02.305Z,99442.50
2023-03-11T19:15:05.361Z,99480.09
2023-03-11T19:18:08.908Z,99480.13
2023-03-11T19:21:12.869Z,99450.84
2023-03-11T19:24:15.624Z,99464.16
2023-03-11T19:27:17.935Z,99472.38
2023-03-11T19:30:22.212Z,99484.13
2023-03-11T19:33:25.694Z,99484.09
2023-03-11T19:36:28.576Z,99466.72
2023-03-11T19:39:31.038Z,99499.66
2023-03-11T19:42:34.565Z,99491.16
2023-03-11T19:45:37.041Z,99512.50
2023-03-11T19:48:39.775Z,99469.75
2023-03-11T19:51:50.056Z,99501.53
2023-03-11T19:54:53.644Z,99526.88
2023-03-11T19:57:56.089Z,99529.28
2023-03-11T20:00:59.854Z,99521.72
2023-03-11T20:04:02.529Z,99498.56
2023-03-11T20:07:05.739Z,99519.81
2023-03-11T20:10:09.221Z,99478.31
2023-03-11T20:13:12.777Z,99502.75
2023-03-11T20:16:19.201Z,99498.56
2023-03-11T20:19:21.721Z,99511.56
2023-03-11T20:22:24.512Z,99511.03
2023-03-11T20:25:29.645Z,99478.88
2023-03-11T20:28:32.502Z,99506.50
2023-03-11T20:31:36.458Z,99442.19
2023-03-11T20:34:39.327Z,99492.72
2023-03-11T20:37:42.813Z,99477.22
2023-03-11T20:40:45.477Z,99462.84
2023-03-11T20:43:48.035Z,99486.25
2023-03-11T20:46:51.182Z,99493.25
2023-03-11T20:49:53.990Z,99487.19
2023-03-11T20:52:57.026Z,99459.78
2023-03-11T20:56:05.323Z,99493.44
2023-03-11T20:59:08.194Z,99503.34
2023-03-11T21:02:11.884Z,99512.19
2023-03-11T21:05:14.519Z,99491.94
2023-03-11T21:08:17.358Z,99528.84
2023-03-11T21:11:20.186Z,99515.84
2023-03-11T21:14:22.622Z,99503.44
2023-03-11T21:17:25.472Z,99528.50
2023-03-11T21:20:27.954Z,99527.19
2023-03-11T21:23:30.900Z,99510.31
2023-03-11T21:26:33.514Z,99547.28
2023-03-11T21:29:37.386Z,99527.34
2023-03-11T21:32:39.815Z,99533.81
2023-03-11T21:35:42.914Z,99554.72
2023-03-11T21:38:47.330Z,99555.84
2023-03-11T21:41:50.727Z,99566.84
2023-03-11T21:44:53.128Z,99587.00
2023-03-11T21:47:55.859Z,99558.75
2023-03-11T21:50:58.727Z,99570.50
2023-03-11T21:54:03.598Z,99567.31
2023-03-11T21:57:06.176Z,99585.81
2023-03-11T22:00:19.219Z,99583.19
2023-03-11T22:03:23.644Z,99583.38
2023-03-11T22:06:26.634Z,99588.84
2023-03-11T22:09:29.344Z,99588.16
2023-03-11T22:12:31.697Z,99604.50
2023-03-11T22:15:34.391Z,99575.91
2023-03-11T22:18:36.792Z,99604.37
2023-03-11T22:21:39.447Z,99587.25
2023-03-11T22:24:41.815Z,99579.97
2023-03-11T22:27:44.412Z,99594.34
2023-03-11T22:30:46.764Z,99616.03
2023-03-11T22:33:49.535Z,99589.59
2023-03-11T22:36:51.930Z,99586.72
2023-03-11T22:39:54.614Z,99596.47
2023-03-11T22:42:56.945Z,99602.03
2023-03-11T22:46:02.325Z,99619.78
2023-03-11T22:49:04.841Z,99630.16
2023-03-11T22:52:07.617Z,99640.16
2023-03-11T22:55:10.366Z,99668.78
2023-03-11T22:58:13.098Z,99661.56
2023-03-11T23:01:16.549Z,99664.56
2023-03-11T23:04:19.190Z,99650.28
2023-03-11T23:07:21.505Z,99676.50
2023-03-11T23:10:24.167Z,99690.91
2023-03-11T23:13:26.923Z,99680.31
2023-03-11T23:16:29.870Z,99696.75
2023-03-11T23:19:32.170Z,99677.91
2023-03-11T23:22:36.651Z,99706.28
2023-03-11T23:25:40.976Z,99672.50
2023-03-11T23:28:44.354Z,99693.47
2023-03-11T23:31:46.683Z,99709.69
2023-03-11T23:34:49.250Z,99676.31
2023-03-11T23:37:51.964Z,99684.59
2023-03-11T23:40:54.626Z,99686.53
2023-03-11T23:43:56.917Z,99685.38
2023-03-11T23:46:59.687Z,99715.03
2023-03-11T23:50:02.079Z,99691.44
2023-03-11T23:53:04.751Z,99699.94
2023-03-11T23:56:12.802Z,99730.97
2023-03-11T23:59:15.403Z,99739.84
